Summit Lake, Wisconsin
Current Conditions -  °F | °C
As of 3:15 AM on Friday 31 Oct 2014 (Local Time) from KAIG Reporting Station
Broken Clouds Broken Clouds  
Wind Chill: 18°   Ceiling: 3500
Heat Index: 31°   Visibility: 10mi
Dew Point: 27°   Wind: 22mph
Humidity: 87%   Direction: 350°N
Pressure: 30.13"   Gusts: 30mph
Location:  45.38°N, 89.19°W
Report Text: KAIG 310815Z AUTO 35019G26KT 10SM SCT015 SCT021 BKN035 M01/M03 A3013 RMK AO2 T10081027
Loading
Personal Weather Stations






























Interactive Weather Map
Tropical Storm Tracking
New forecast layout! Learn more

10-Day Weather Forecast

Advertisements
Track Severe Weather on mobile